sensor_id;sensor_type;location;lat;lon;timestamp;P1;durP1;ratioP1;P2;durP2;ratioP2
3355;SDS011;1691;52.486;13.374;2022-11-23T00:01:33;52.20;;;23.10;;
3355;SDS011;1691;52.486;13.374;2022-11-23T00:04:06;51.93;;;24.67;;
3355;SDS011;1691;52.486;13.374;2022-11-23T00:06:37;59.50;;;26.90;;
3355;SDS011;1691;52.486;13.374;2022-11-23T00:09:06;61.10;;;26.20;;
3355;SDS011;1691;52.486;13.374;2022-11-23T00:11:36;51.30;;;22.77;;
3355;SDS011;1691;52.486;13.374;2022-11-23T00:14:03;55.85;;;24.40;;
3355;SDS011;1691;52.486;13.374;2022-11-23T00:16:30;54.10;;;25.90;;
3355;SDS011;1691;52.486;13.374;2022-11-23T00:18:58;40.50;;;21.90;;
3355;SDS011;1691;52.486;13.374;2022-11-23T00:21:28;47.45;;;22.40;;
3355;SDS011;1691;52.486;13.374;2022-11-23T00:23:57;50.60;;;24.43;;
3355;SDS011;1691;52.486;13.374;2022-11-23T00:26:25;48.00;;;24.90;;
3355;SDS011;1691;52.486;13.374;2022-11-23T00:28:53;55.80;;;24.60;;
3355;SDS011;1691;52.486;13.374;2022-11-23T00:31:21;57.17;;;24.57;;
3355;SDS011;1691;52.486;13.374;2022-11-23T00:33:52;49.63;;;24.23;;
3355;SDS011;1691;52.486;13.374;2022-11-23T00:36:21;65.30;;;25.43;;
3355;SDS011;1691;52.486;13.374;2022-11-23T00:38:51;54.87;;;23.77;;
3355;SDS011;1691;52.486;13.374;2022-11-23T00:41:24;52.37;;;23.70;;
3355;SDS011;1691;52.486;13.374;2022-11-23T00:43:59;66.00;;;27.10;;
3355;SDS011;1691;52.486;13.374;2022-11-23T00:46:27;57.20;;;24.80;;
3355;SDS011;1691;52.486;13.374;2022-11-23T00:48:57;54.40;;;24.50;;
3355;SDS011;1691;52.486;13.374;2022-11-23T00:51:28;55.07;;;24.00;;
3355;SDS011;1691;52.486;13.374;2022-11-23T00:54:08;58.67;;;25.53;;
3355;SDS011;1691;52.486;13.374;2022-11-23T00:56:35;60.67;;;24.17;;
3355;SDS011;1691;52.486;13.374;2022-11-23T00:59:03;57.20;;;25.53;;
3355;SDS011;1691;52.486;13.374;2022-11-23T01:01:34;48.03;;;24.17;;
3355;SDS011;1691;52.486;13.374;2022-11-23T01:04:04;58.10;;;26.70;;
3355;SDS011;1691;52.486;13.374;2022-11-23T01:06:34;48.40;;;23.30;;
3355;SDS011;1691;52.486;13.374;2022-11-23T01:09:06;46.53;;;23.63;;
3355;SDS011;1691;52.486;13.374;2022-11-23T01:11:43;51.23;;;24.93;;
3355;SDS011;1691;52.486;13.374;2022-11-23T01:14:13;54.33;;;24.47;;
3355;SDS011;1691;52.486;13.374;2022-11-23T01:16:43;48.00;;;23.90;;
3355;SDS011;1691;52.486;13.374;2022-11-23T01:19:11;47.40;;;22.70;;
3355;SDS011;1691;52.486;13.374;2022-11-23T01:21:41;64.40;;;24.93;;
3355;SDS011;1691;52.486;13.374;2022-11-23T01:24:13;54.70;;;23.77;;
3355;SDS011;1691;52.486;13.374;2022-11-23T01:26:53;44.27;;;22.93;;
3355;SDS011;1691;52.486;13.374;2022-11-23T01:29:24;46.53;;;22.30;;
3355;SDS011;1691;52.486;13.374;2022-11-23T01:31:51;48.83;;;23.57;;
3355;SDS011;1691;52.486;13.374;2022-11-23T01:34:18;52.57;;;24.60;;
3355;SDS011;1691;52.486;13.374;2022-11-23T01:36:46;44.65;;;23.95;;
3355;SDS011;1691;52.486;13.374;2022-11-23T01:39:13;58.50;;;24.00;;
3355;SDS011;1691;52.486;13.374;2022-11-23T01:41:41;46.60;;;23.33;;
3355;SDS011;1691;52.486;13.374;2022-11-23T01:44:23;42.50;;;22.30;;
3355;SDS011;1691;52.486;13.374;2022-11-23T01:47:02;48.10;;;24.90;;
3355;SDS011;1691;52.486;13.374;2022-11-23T01:49:35;51.90;;;23.27;;
3355;SDS011;1691;52.486;13.374;2022-11-23T01:52:16;52.10;;;23.90;;
3355;SDS011;1691;52.486;13.374;2022-11-23T01:54:51;51.00;;;22.87;;
3355;SDS011;1691;52.486;13.374;2022-11-23T01:57:22;55.00;;;23.95;;
3355;SDS011;1691;52.486;13.374;2022-11-23T01:59:59;42.00;;;22.33;;
3355;SDS011;1691;52.486;13.374;2022-11-23T02:02:27;44.30;;;22.83;;
3355;SDS011;1691;52.486;13.374;2022-11-23T02:04:58;47.50;;;23.90;;
3355;SDS011;1691;52.486;13.374;2022-11-23T02:07:30;48.10;;;22.00;;
3355;SDS011;1691;52.486;13.374;2022-11-23T02:09:59;45.37;;;23.23;;
3355;SDS011;1691;52.486;13.374;2022-11-23T02:12:26;52.87;;;21.60;;
3355;SDS011;1691;52.486;13.374;2022-11-23T02:14:54;43.17;;;22.97;;
3355;SDS011;1691;52.486;13.374;2022-11-23T02:17:22;47.00;;;21.27;;
3355;SDS011;1691;52.486;13.374;2022-11-23T02:22:26;43.27;;;22.97;;
3355;SDS011;1691;52.486;13.374;2022-11-23T02:25:13;39.23;;;22.20;;
3355;SDS011;1691;52.486;13.374;2022-11-23T02:28:05;48.70;;;20.80;;
3355;SDS011;1691;52.486;13.374;2022-11-23T02:30:35;40.70;;;21.60;;
3355;SDS011;1691;52.486;13.374;2022-11-23T02:33:11;39.73;;;20.93;;
3355;SDS011;1691;52.486;13.374;2022-11-23T02:35:52;42.57;;;20.07;;
3355;SDS011;1691;52.486;13.374;2022-11-23T02:38:27;47.15;;;23.25;;
3355;SDS011;1691;52.486;13.374;2022-11-23T02:40:58;45.30;;;22.50;;
3355;SDS011;1691;52.486;13.374;2022-11-23T02:43:25;47.10;;;22.40;;
3355;SDS011;1691;52.486;13.374;2022-11-23T02:45:54;43.93;;;21.80;;
3355;SDS011;1691;52.486;13.374;2022-11-23T02:48:24;44.17;;;22.70;;
3355;SDS011;1691;52.486;13.374;2022-11-23T02:50:52;41.47;;;21.60;;
3355;SDS011;1691;52.486;13.374;2022-11-23T02:53:19;47.67;;;22.23;;
3355;SDS011;1691;52.486;13.374;2022-11-23T02:55:46;49.40;;;23.73;;
3355;SDS011;1691;52.486;13.374;2022-11-23T02:58:23;42.90;;;21.63;;
3355;SDS011;1691;52.486;13.374;2022-11-23T03:00:56;48.43;;;21.17;;
3355;SDS011;1691;52.486;13.374;2022-11-23T03:03:24;42.53;;;21.33;;
3355;SDS011;1691;52.486;13.374;2022-11-23T03:05:52;44.73;;;21.20;;
3355;SDS011;1691;52.486;13.374;2022-11-23T03:08:21;47.73;;;24.43;;
3355;SDS011;1691;52.486;13.374;2022-11-23T03:10:49;49.90;;;21.83;;
3355;SDS011;1691;52.486;13.374;2022-11-23T03:13:16;37.00;;;20.37;;
3355;SDS011;1691;52.486;13.374;2022-11-23T03:15:44;38.27;;;22.30;;
3355;SDS011;1691;52.486;13.374;2022-11-23T03:18:13;44.87;;;20.87;;
3355;SDS011;1691;52.486;13.374;2022-11-23T03:20:44;48.97;;;24.07;;
3355;SDS011;1691;52.486;13.374;2022-11-23T03:23:15;39.57;;;20.53;;
3355;SDS011;1691;52.486;13.374;2022-11-23T03:25:42;41.30;;;22.40;;
3355;SDS011;1691;52.486;13.374;2022-11-23T03:28:09;46.63;;;21.73;;
3355;SDS011;1691;52.486;13.374;2022-11-23T03:30:36;47.37;;;23.00;;
3355;SDS011;1691;52.486;13.374;2022-11-23T03:33:03;43.13;;;21.43;;
3355;SDS011;1691;52.486;13.374;2022-11-23T03:35:34;38.90;;;21.00;;
3355;SDS011;1691;52.486;13.374;2022-11-23T03:38:07;39.40;;;21.50;;
3355;SDS011;1691;52.486;13.374;2022-11-23T03:40:34;45.47;;;23.23;;
3355;SDS011;1691;52.486;13.374;2022-11-23T03:43:02;39.90;;;21.00;;
3355;SDS011;1691;52.486;13.374;2022-11-23T03:45:30;48.40;;;21.70;;
3355;SDS011;1691;52.486;13.374;2022-11-23T03:47:58;46.10;;;22.40;;
3355;SDS011;1691;52.486;13.374;2022-11-23T03:50:26;45.33;;;22.73;;
3355;SDS011;1691;52.486;13.374;2022-11-23T03:52:55;41.75;;;18.50;;
3355;SDS011;1691;52.486;13.374;2022-11-23T03:55:26;47.95;;;23.30;;
3355;SDS011;1691;52.486;13.374;2022-11-23T03:57:54;53.70;;;22.40;;
3355;SDS011;1691;52.486;13.374;2022-11-23T04:00:27;52.20;;;23.15;;
3355;SDS011;1691;52.486;13.374;2022-11-23T04:02:58;38.17;;;20.50;;
3355;SDS011;1691;52.486;13.374;2022-11-23T04:05:26;60.80;;;23.57;;
3355;SDS011;1691;52.486;13.374;2022-11-23T04:07:59;43.00;;;22.45;;
3355;SDS011;1691;52.486;13.374;2022-11-23T04:10:31;44.20;;;21.20;;
3355;SDS011;1691;52.486;13.374;2022-11-23T04:13:01;48.93;;;22.40;;
3355;SDS011;1691;52.486;13.374;2022-11-23T04:15:35;42.20;;;21.57;;
3355;SDS011;1691;52.486;13.374;2022-11-23T04:18:02;47.40;;;22.00;;
3355;SDS011;1691;52.486;13.374;2022-11-23T04:20:30;52.60;;;23.83;;
3355;SDS011;1691;52.486;13.374;2022-11-23T04:23:00;49.73;;;22.30;;
3355;SDS011;1691;52.486;13.374;2022-11-23T04:25:28;41.70;;;20.43;;
3355;SDS011;1691;52.486;13.374;2022-11-23T04:28:04;46.27;;;22.73;;
3355;SDS011;1691;52.486;13.374;2022-11-23T04:30:57;43.87;;;21.97;;
3355;SDS011;1691;52.486;13.374;2022-11-23T04:33:36;44.20;;;23.77;;
3355;SDS011;1691;52.486;13.374;2022-11-23T04:36:12;49.30;;;22.60;;
3355;SDS011;1691;52.486;13.374;2022-11-23T04:38:40;45.37;;;23.20;;
3355;SDS011;1691;52.486;13.374;2022-11-23T04:41:07;38.17;;;20.57;;
3355;SDS011;1691;52.486;13.374;2022-11-23T04:43:36;39.20;;;20.80;;
3355;SDS011;1691;52.486;13.374;2022-11-23T04:46:06;41.00;;;20.65;;
3355;SDS011;1691;52.486;13.374;2022-11-23T04:48:37;46.00;;;20.80;;
3355;SDS011;1691;52.486;13.374;2022-11-23T04:51:07;42.15;;;20.75;;
3355;SDS011;1691;52.486;13.374;2022-11-23T04:53:38;44.70;;;21.80;;
3355;SDS011;1691;52.486;13.374;2022-11-23T04:56:06;57.07;;;22.57;;
3355;SDS011;1691;52.486;13.374;2022-11-23T04:58:39;45.33;;;22.27;;
3355;SDS011;1691;52.486;13.374;2022-11-23T05:01:10;43.57;;;20.47;;
3355;SDS011;1691;52.486;13.374;2022-11-23T05:03:37;38.47;;;21.13;;
3355;SDS011;1691;52.486;13.374;2022-11-23T05:06:05;43.20;;;22.83;;
3355;SDS011;1691;52.486;13.374;2022-11-23T05:08:33;46.57;;;21.80;;
3355;SDS011;1691;52.486;13.374;2022-11-23T05:11:07;50.73;;;23.37;;
3355;SDS011;1691;52.486;13.374;2022-11-23T05:13:35;38.90;;;21.30;;
3355;SDS011;1691;52.486;13.374;2022-11-23T05:16:05;42.20;;;21.97;;
3355;SDS011;1691;52.486;13.374;2022-11-23T05:18:35;43.53;;;23.53;;
3355;SDS011;1691;52.486;13.374;2022-11-23T05:21:06;39.00;;;19.33;;
3355;SDS011;1691;52.486;13.374;2022-11-23T05:23:34;39.17;;;21.60;;
3355;SDS011;1691;52.486;13.374;2022-11-23T05:26:01;37.30;;;20.80;;
3355;SDS011;1691;52.486;13.374;2022-11-23T05:28:29;52.55;;;22.90;;
3355;SDS011;1691;52.486;13.374;2022-11-23T05:31:06;40.87;;;20.97;;
3355;SDS011;1691;52.486;13.374;2022-11-23T05:33:36;39.30;;;18.80;;
3355;SDS011;1691;52.486;13.374;2022-11-23T05:36:05;39.10;;;19.20;;
3355;SDS011;1691;52.486;13.374;2022-11-23T05:38:34;38.17;;;20.67;;
3355;SDS011;1691;52.486;13.374;2022-11-23T05:41:02;44.10;;;20.53;;
3355;SDS011;1691;52.486;13.374;2022-11-23T05:43:35;36.97;;;18.97;;
3355;SDS011;1691;52.486;13.374;2022-11-23T05:46:05;37.37;;;19.07;;
3355;SDS011;1691;52.486;13.374;2022-11-23T05:48:38;45.47;;;21.30;;
3355;SDS011;1691;52.486;13.374;2022-11-23T05:51:24;37.20;;;20.50;;
3355;SDS011;1691;52.486;13.374;2022-11-23T05:53:57;37.27;;;19.67;;
3355;SDS011;1691;52.486;13.374;2022-11-23T05:56:28;45.43;;;21.70;;
3355;SDS011;1691;52.486;13.374;2022-11-23T05:59:02;37.27;;;20.53;;
3355;SDS011;1691;52.486;13.374;2022-11-23T06:01:33;32.60;;;19.23;;
3355;SDS011;1691;52.486;13.374;2022-11-23T06:04:01;35.30;;;20.25;;
3355;SDS011;1691;52.486;13.374;2022-11-23T06:06:32;41.90;;;19.10;;
3355;SDS011;1691;52.486;13.374;2022-11-23T06:09:04;36.30;;;19.70;;
3355;SDS011;1691;52.486;13.374;2022-11-23T06:11:35;31.60;;;19.10;;
3355;SDS011;1691;52.486;13.374;2022-11-23T06:14:03;36.90;;;19.40;;
3355;SDS011;1691;52.486;13.374;2022-11-23T06:16:38;39.47;;;20.03;;
3355;SDS011;1691;52.486;13.374;2022-11-23T06:19:08;32.70;;;18.80;;
3355;SDS011;1691;52.486;13.374;2022-11-23T06:21:47;35.10;;;18.60;;
3355;SDS011;1691;52.486;13.374;2022-11-23T06:24:16;37.80;;;19.50;;
3355;SDS011;1691;52.486;13.374;2022-11-23T06:26:43;34.93;;;20.27;;
3355;SDS011;1691;52.486;13.374;2022-11-23T06:29:10;38.97;;;20.13;;
3355;SDS011;1691;52.486;13.374;2022-11-23T06:31:38;38.00;;;17.60;;
3355;SDS011;1691;52.486;13.374;2022-11-23T06:34:06;37.00;;;19.95;;
3355;SDS011;1691;52.486;13.374;2022-11-23T06:36:45;31.20;;;18.55;;
3355;SDS011;1691;52.486;13.374;2022-11-23T06:39:16;36.25;;;19.85;;
3355;SDS011;1691;52.486;13.374;2022-11-23T06:41:44;41.27;;;20.10;;
3355;SDS011;1691;52.486;13.374;2022-11-23T06:44:29;31.00;;;19.40;;
3355;SDS011;1691;52.486;13.374;2022-11-23T06:47:02;40.10;;;20.10;;
3355;SDS011;1691;52.486;13.374;2022-11-23T06:49:30;41.03;;;20.73;;
3355;SDS011;1691;52.486;13.374;2022-11-23T06:52:01;42.50;;;19.95;;
3355;SDS011;1691;52.486;13.374;2022-11-23T06:54:32;38.57;;;20.80;;
3355;SDS011;1691;52.486;13.374;2022-11-23T06:57:05;36.20;;;20.20;;
3355;SDS011;1691;52.486;13.374;2022-11-23T06:59:34;36.70;;;19.15;;
3355;SDS011;1691;52.486;13.374;2022-11-23T07:02:10;30.60;;;18.90;;
3355;SDS011;1691;52.486;13.374;2022-11-23T07:04:43;37.73;;;20.20;;
3355;SDS011;1691;52.486;13.374;2022-11-23T07:07:11;36.20;;;19.20;;
3355;SDS011;1691;52.486;13.374;2022-11-23T07:09:41;39.20;;;20.53;;
3355;SDS011;1691;52.486;13.374;2022-11-23T07:12:13;39.20;;;20.17;;
3355;SDS011;1691;52.486;13.374;2022-11-23T07:14:40;41.07;;;20.60;;
3355;SDS011;1691;52.486;13.374;2022-11-23T07:17:10;33.67;;;19.23;;
3355;SDS011;1691;52.486;13.374;2022-11-23T07:19:43;36.20;;;20.20;;
3355;SDS011;1691;52.486;13.374;2022-11-23T07:22:11;34.47;;;19.80;;
3355;SDS011;1691;52.486;13.374;2022-11-23T07:24:41;30.63;;;17.80;;
3355;SDS011;1691;52.486;13.374;2022-11-23T07:27:12;37.00;;;18.70;;
3355;SDS011;1691;52.486;13.374;2022-11-23T07:29:45;41.40;;;20.23;;
3355;SDS011;1691;52.486;13.374;2022-11-23T07:32:16;32.73;;;18.63;;
3355;SDS011;1691;52.486;13.374;2022-11-23T07:34:47;40.13;;;20.07;;
3355;SDS011;1691;52.486;13.374;2022-11-23T07:37:15;34.50;;;17.30;;
3355;SDS011;1691;52.486;13.374;2022-11-23T07:39:50;35.20;;;20.27;;
3355;SDS011;1691;52.486;13.374;2022-11-23T07:42:23;36.20;;;18.80;;
3355;SDS011;1691;52.486;13.374;2022-11-23T07:45:06;45.70;;;19.30;;
3355;SDS011;1691;52.486;13.374;2022-11-23T07:47:37;36.27;;;19.27;;
3355;SDS011;1691;52.486;13.374;2022-11-23T07:50:06;36.17;;;18.60;;
3355;SDS011;1691;52.486;13.374;2022-11-23T07:52:40;40.33;;;20.10;;
3355;SDS011;1691;52.486;13.374;2022-11-23T07:55:14;36.67;;;19.60;;
3355;SDS011;1691;52.486;13.374;2022-11-23T07:57:45;31.20;;;17.95;;
3355;SDS011;1691;52.486;13.374;2022-11-23T08:00:25;33.00;;;18.40;;
3355;SDS011;1691;52.486;13.374;2022-11-23T08:03:03;36.30;;;19.10;;
3355;SDS011;1691;52.486;13.374;2022-11-23T08:05:53;29.77;;;17.37;;
3355;SDS011;1691;52.486;13.374;2022-11-23T08:08:34;31.20;;;18.40;;
3355;SDS011;1691;52.486;13.374;2022-11-23T08:11:14;27.83;;;15.93;;
3355;SDS011;1691;52.486;13.374;2022-11-23T08:13:51;30.97;;;17.60;;
3355;SDS011;1691;52.486;13.374;2022-11-23T08:16:25;35.93;;;19.77;;
3355;SDS011;1691;52.486;13.374;2022-11-23T08:18:59;40.70;;;18.90;;
3355;SDS011;1691;52.486;13.374;2022-11-23T08:21:28;29.73;;;18.00;;
3355;SDS011;1691;52.486;13.374;2022-11-23T08:23:55;32.37;;;18.60;;
3355;SDS011;1691;52.486;13.374;2022-11-23T08:26:23;36.87;;;20.10;;
3355;SDS011;1691;52.486;13.374;2022-11-23T08:28:51;32.33;;;17.60;;
3355;SDS011;1691;52.486;13.374;2022-11-23T08:31:21;42.20;;;19.63;;
3355;SDS011;1691;52.486;13.374;2022-11-23T08:33:58;27.70;;;17.23;;
3355;SDS011;1691;52.486;13.374;2022-11-23T08:36:29;31.60;;;19.17;;
3355;SDS011;1691;52.486;13.374;2022-11-23T08:39:02;33.80;;;17.80;;
3355;SDS011;1691;52.486;13.374;2022-11-23T08:41:36;28.60;;;18.50;;
3355;SDS011;1691;52.486;13.374;2022-11-23T08:44:04;31.40;;;18.43;;
3355;SDS011;1691;52.486;13.374;2022-11-23T08:46:37;34.40;;;18.33;;
3355;SDS011;1691;52.486;13.374;2022-11-23T08:49:08;29.00;;;15.83;;
3355;SDS011;1691;52.486;13.374;2022-11-23T08:51:54;35.10;;;19.20;;
3355;SDS011;1691;52.486;13.374;2022-11-23T08:54:25;31.50;;;18.90;;
3355;SDS011;1691;52.486;13.374;2022-11-23T08:56:59;29.90;;;16.87;;
3355;SDS011;1691;52.486;13.374;2022-11-23T08:59:30;30.87;;;18.67;;
3355;SDS011;1691;52.486;13.374;2022-11-23T09:01:59;33.77;;;19.20;;
3355;SDS011;1691;52.486;13.374;2022-11-23T09:04:33;29.70;;;18.20;;
3355;SDS011;1691;52.486;13.374;2022-11-23T09:10:42;32.13;;;16.77;;
3355;SDS011;1691;52.486;13.374;2022-11-23T09:13:21;29.97;;;18.30;;
3355;SDS011;1691;52.486;13.374;2022-11-23T09:15:50;27.43;;;17.10;;
3355;SDS011;1691;52.486;13.374;2022-11-23T09:18:48;34.40;;;18.30;;
3355;SDS011;1691;52.486;13.374;2022-11-23T09:21:20;36.03;;;17.30;;
3355;SDS011;1691;52.486;13.374;2022-11-23T09:23:48;34.10;;;19.03;;
3355;SDS011;1691;52.486;13.374;2022-11-23T09:26:16;30.03;;;17.93;;
3355;SDS011;1691;52.486;13.374;2022-11-23T09:28:46;26.90;;;17.37;;
3355;SDS011;1691;52.486;13.374;2022-11-23T09:31:14;31.53;;;17.73;;
3355;SDS011;1691;52.486;13.374;2022-11-23T09:33:45;25.20;;;16.83;;
3355;SDS011;1691;52.486;13.374;2022-11-23T09:36:12;31.67;;;17.20;;
3355;SDS011;1691;52.486;13.374;2022-11-23T09:38:47;21.77;;;15.20;;
3355;SDS011;1691;52.486;13.374;2022-11-23T09:47:32;28.93;;;17.63;;
3355;SDS011;1691;52.486;13.374;2022-11-23T09:54:43;23.47;;;16.07;;
3355;SDS011;1691;52.486;13.374;2022-11-23T09:57:18;23.63;;;15.00;;
3355;SDS011;1691;52.486;13.374;2022-11-23T10:00:21;27.93;;;15.67;;
3355;SDS011;1691;52.486;13.374;2022-11-23T10:02:53;25.37;;;16.33;;
3355;SDS011;1691;52.486;13.374;2022-11-23T10:05:23;18.90;;;14.33;;
3355;SDS011;1691;52.486;13.374;2022-11-23T10:22:18;23.93;;;15.77;;
3355;SDS011;1691;52.486;13.374;2022-11-23T10:26:09;26.40;;;13.80;;
3355;SDS011;1691;52.486;13.374;2022-11-23T10:28:41;20.87;;;13.30;;
3355;SDS011;1691;52.486;13.374;2022-11-23T10:31:12;19.23;;;13.00;;
3355;SDS011;1691;52.486;13.374;2022-11-23T10:36:40;24.30;;;14.63;;
3355;SDS011;1691;52.486;13.374;2022-11-23T10:41:56;24.27;;;14.93;;
3355;SDS011;1691;52.486;13.374;2022-11-23T10:44:29;32.90;;;16.97;;
3355;SDS011;1691;52.486;13.374;2022-11-23T10:47:03;24.60;;;15.57;;
3355;SDS011;1691;52.486;13.374;2022-11-23T10:49:44;24.93;;;14.33;;
3355;SDS011;1691;52.486;13.374;2022-11-23T10:53:24;29.27;;;15.13;;
3355;SDS011;1691;52.486;13.374;2022-11-23T10:55:57;21.77;;;15.40;;
3355;SDS011;1691;52.486;13.374;2022-11-23T10:58:30;24.90;;;15.00;;
3355;SDS011;1691;52.486;13.374;2022-11-23T11:01:02;22.03;;;15.20;;
3355;SDS011;1691;52.486;13.374;2022-11-23T11:03:43;25.07;;;14.47;;
3355;SDS011;1691;52.486;13.374;2022-11-23T11:06:43;29.70;;;15.60;;
3355;SDS011;1691;52.486;13.374;2022-11-23T11:09:18;35.13;;;16.47;;
3355;SDS011;1691;52.486;13.374;2022-11-23T11:16:01;24.40;;;15.20;;
3355;SDS011;1691;52.486;13.374;2022-11-23T11:18:46;28.20;;;17.60;;
3355;SDS011;1691;52.486;13.374;2022-11-23T11:21:29;25.87;;;15.67;;
3355;SDS011;1691;52.486;13.374;2022-11-23T11:24:04;47.33;;;20.17;;
3355;SDS011;1691;52.486;13.374;2022-11-23T11:26:52;25.33;;;16.77;;
3355;SDS011;1691;52.486;13.374;2022-11-23T11:29:33;25.10;;;15.53;;
3355;SDS011;1691;52.486;13.374;2022-11-23T11:32:27;20.60;;;14.17;;
3355;SDS011;1691;52.486;13.374;2022-11-23T11:35:41;26.80;;;15.77;;
3355;SDS011;1691;52.486;13.374;2022-11-23T11:38:26;28.33;;;16.43;;
3355;SDS011;1691;52.486;13.374;2022-11-23T11:44:23;32.00;;;16.90;;
3355;SDS011;1691;52.486;13.374;2022-11-23T11:46:59;20.13;;;14.43;;
3355;SDS011;1691;52.486;13.374;2022-11-23T11:49:46;22.10;;;14.17;;
3355;SDS011;1691;52.486;13.374;2022-11-23T11:52:31;24.67;;;15.70;;
3355;SDS011;1691;52.486;13.374;2022-11-23T11:55:16;20.27;;;14.03;;
3355;SDS011;1691;52.486;13.374;2022-11-23T11:58:09;22.67;;;14.80;;
3355;SDS011;1691;52.486;13.374;2022-11-23T12:01:07;20.47;;;14.47;;
3355;SDS011;1691;52.486;13.374;2022-11-23T12:04:16;24.00;;;13.93;;
3355;SDS011;1691;52.486;13.374;2022-11-23T12:07:30;20.67;;;13.60;;
3355;SDS011;1691;52.486;13.374;2022-11-23T12:10:39;24.95;;;16.10;;
3355;SDS011;1691;52.486;13.374;2022-11-23T12:14:10;38.40;;;15.17;;
3355;SDS011;1691;52.486;13.374;2022-11-23T12:17:02;25.60;;;14.47;;
3355;SDS011;1691;52.486;13.374;2022-11-23T12:31:41;21.70;;;14.43;;
3355;SDS011;1691;52.486;13.374;2022-11-23T12:39:54;29.67;;;14.77;;
3355;SDS011;1691;52.486;13.374;2022-11-23T12:51:26;22.17;;;13.70;;
3355;SDS011;1691;52.486;13.374;2022-11-23T13:00:19;26.60;;;14.83;;
3355;SDS011;1691;52.486;13.374;2022-11-23T13:02:52;24.30;;;14.07;;
3355;SDS011;1691;52.486;13.374;2022-11-23T13:08:59;23.00;;;14.30;;
3355;SDS011;1691;52.486;13.374;2022-11-23T13:11:46;21.20;;;12.67;;
3355;SDS011;1691;52.486;13.374;2022-11-23T13:23:42;21.33;;;14.10;;
3355;SDS011;1691;52.486;13.374;2022-11-23T13:26:17;23.03;;;14.57;;
3355;SDS011;1691;52.486;13.374;2022-11-23T13:28:54;30.77;;;15.03;;
3355;SDS011;1691;52.486;13.374;2022-11-23T13:31:25;22.13;;;13.93;;
3355;SDS011;1691;52.486;13.374;2022-11-23T13:33:57;27.57;;;15.33;;
3355;SDS011;1691;52.486;13.374;2022-11-23T13:36:38;25.63;;;12.87;;
3355;SDS011;1691;52.486;13.374;2022-11-23T13:42:21;27.80;;;13.27;;
3355;SDS011;1691;52.486;13.374;2022-11-23T13:48:13;23.77;;;15.03;;
3355;SDS011;1691;52.486;13.374;2022-11-23T13:51:03;24.67;;;14.17;;
3355;SDS011;1691;52.486;13.374;2022-11-23T13:53:34;22.80;;;13.40;;
3355;SDS011;1691;52.486;13.374;2022-11-23T14:04:28;15.17;;;11.33;;
3355;SDS011;1691;52.486;13.374;2022-11-23T14:15:26;25.77;;;12.67;;
3355;SDS011;1691;52.486;13.374;2022-11-23T14:21:12;21.87;;;12.87;;
3355;SDS011;1691;52.486;13.374;2022-11-23T14:23:49;23.03;;;13.10;;
3355;SDS011;1691;52.486;13.374;2022-11-23T14:26:53;26.17;;;13.17;;
3355;SDS011;1691;52.486;13.374;2022-11-23T14:33:18;22.83;;;13.70;;
3355;SDS011;1691;52.486;13.374;2022-11-23T14:41:58;25.40;;;12.40;;
3355;SDS011;1691;52.486;13.374;2022-11-23T14:44:29;20.70;;;12.80;;
3355;SDS011;1691;52.486;13.374;2022-11-23T14:47:07;14.90;;;12.20;;
3355;SDS011;1691;52.486;13.374;2022-11-23T14:49:37;22.37;;;11.77;;
3355;SDS011;1691;52.486;13.374;2022-11-23T14:52:17;20.27;;;12.53;;
3355;SDS011;1691;52.486;13.374;2022-11-23T14:54:47;18.60;;;12.50;;
3355;SDS011;1691;52.486;13.374;2022-11-23T14:57:18;22.30;;;12.90;;
3355;SDS011;1691;52.486;13.374;2022-11-23T14:59:53;25.83;;;13.00;;
3355;SDS011;1691;52.486;13.374;2022-11-23T15:05:15;25.73;;;12.80;;
3355;SDS011;1691;52.486;13.374;2022-11-23T15:11:08;30.30;;;14.40;;
3355;SDS011;1691;52.486;13.374;2022-11-23T15:13:44;26.13;;;11.90;;
3355;SDS011;1691;52.486;13.374;2022-11-23T15:16:17;23.77;;;12.33;;
3355;SDS011;1691;52.486;13.374;2022-11-23T15:18:48;20.83;;;11.73;;
3355;SDS011;1691;52.486;13.374;2022-11-23T15:23:52;18.67;;;12.30;;
3355;SDS011;1691;52.486;13.374;2022-11-23T15:26:23;24.10;;;12.10;;
3355;SDS011;1691;52.486;13.374;2022-11-23T15:29:26;24.50;;;12.07;;
3355;SDS011;1691;52.486;13.374;2022-11-23T15:31:59;23.57;;;13.87;;
3355;SDS011;1691;52.486;13.374;2022-11-23T15:34:48;22.67;;;14.03;;
3355;SDS011;1691;52.486;13.374;2022-11-23T15:37:17;23.23;;;12.47;;
3355;SDS011;1691;52.486;13.374;2022-11-23T15:39:44;26.00;;;13.37;;
3355;SDS011;1691;52.486;13.374;2022-11-23T15:42:16;19.60;;;12.27;;
3355;SDS011;1691;52.486;13.374;2022-11-23T15:44:45;21.17;;;13.13;;
3355;SDS011;1691;52.486;13.374;2022-11-23T15:47:23;24.43;;;12.30;;
3355;SDS011;1691;52.486;13.374;2022-11-23T15:50:06;24.10;;;14.30;;
3355;SDS011;1691;52.486;13.374;2022-11-23T15:52:35;23.90;;;12.23;;
3355;SDS011;1691;52.486;13.374;2022-11-23T15:55:04;23.50;;;13.50;;
3355;SDS011;1691;52.486;13.374;2022-11-23T15:57:35;27.17;;;13.63;;
3355;SDS011;1691;52.486;13.374;2022-11-23T16:00:05;16.53;;;11.97;;
3355;SDS011;1691;52.486;13.374;2022-11-23T16:02:34;20.40;;;12.00;;
3355;SDS011;1691;52.486;13.374;2022-11-23T16:07:53;21.70;;;13.00;;
3355;SDS011;1691;52.486;13.374;2022-11-23T16:10:23;23.47;;;12.57;;
3355;SDS011;1691;52.486;13.374;2022-11-23T16:12:53;19.47;;;12.03;;
3355;SDS011;1691;52.486;13.374;2022-11-23T16:18:26;21.70;;;13.50;;
3355;SDS011;1691;52.486;13.374;2022-11-23T16:20:54;25.00;;;13.20;;
3355;SDS011;1691;52.486;13.374;2022-11-23T16:23:29;23.70;;;13.07;;
3355;SDS011;1691;52.486;13.374;2022-11-23T16:26:20;23.30;;;13.73;;
3355;SDS011;1691;52.486;13.374;2022-11-23T16:28:57;22.07;;;12.63;;
3355;SDS011;1691;52.486;13.374;2022-11-23T16:33:54;24.43;;;13.07;;
3355;SDS011;1691;52.486;13.374;2022-11-23T16:36:22;20.07;;;12.30;;
3355;SDS011;1691;52.486;13.374;2022-11-23T16:38:52;29.90;;;13.20;;
3355;SDS011;1691;52.486;13.374;2022-11-23T16:41:24;35.03;;;15.90;;
3355;SDS011;1691;52.486;13.374;2022-11-23T16:43:51;28.50;;;17.80;;
3355;SDS011;1691;52.486;13.374;2022-11-23T16:46:19;27.50;;;15.60;;
3355;SDS011;1691;52.486;13.374;2022-11-23T16:48:46;21.60;;;14.10;;
3355;SDS011;1691;52.486;13.374;2022-11-23T16:51:13;27.53;;;15.17;;
3355;SDS011;1691;52.486;13.374;2022-11-23T16:53:41;21.17;;;12.10;;
3355;SDS011;1691;52.486;13.374;2022-11-23T16:56:30;25.40;;;14.70;;
3355;SDS011;1691;52.486;13.374;2022-11-23T16:58:57;24.10;;;15.20;;
3355;SDS011;1691;52.486;13.374;2022-11-23T17:01:25;37.33;;;16.40;;
3355;SDS011;1691;52.486;13.374;2022-11-23T17:03:55;21.63;;;13.23;;
3355;SDS011;1691;52.486;13.374;2022-11-23T17:06:22;28.70;;;14.93;;
3355;SDS011;1691;52.486;13.374;2022-11-23T17:08:49;22.03;;;15.00;;
3355;SDS011;1691;52.486;13.374;2022-11-23T17:11:28;28.50;;;15.37;;
3355;SDS011;1691;52.486;13.374;2022-11-23T17:13:55;29.60;;;15.53;;
3355;SDS011;1691;52.486;13.374;2022-11-23T17:16:24;34.57;;;17.20;;
3355;SDS011;1691;52.486;13.374;2022-11-23T17:18:52;25.47;;;17.33;;
3355;SDS011;1691;52.486;13.374;2022-11-23T17:21:19;29.90;;;16.73;;
3355;SDS011;1691;52.486;13.374;2022-11-23T17:23:46;27.30;;;15.80;;
3355;SDS011;1691;52.486;13.374;2022-11-23T17:28:54;26.87;;;17.40;;
3355;SDS011;1691;52.486;13.374;2022-11-23T17:31:21;27.83;;;17.07;;
3355;SDS011;1691;52.486;13.374;2022-11-23T17:33:48;35.97;;;17.87;;
3355;SDS011;1691;52.486;13.374;2022-11-23T17:36:15;30.03;;;17.63;;
3355;SDS011;1691;52.486;13.374;2022-11-23T17:38:43;31.63;;;17.90;;